Time;durP1;ratioP1;P1;durP2;ratioP2;P2;SDS_P1;SDS_P2;PMS_P1;PMS_P2;Temp;Humidity;BMP_temperature;BMP_pressure;BME280_temperature;BME280_humidity;BME280_pressure;Samples;Min_cycle;Max_cycle;Signal;HPM_P1;HPM_P2
2022/04/17 01:12:17;;;;;;;3.97;3.58;;;;;;;13.64;100.00;100808.13;2554171;54;50741;-65
2022/04/17 01:14:48;;;;;;;1.80;1.33;;;;;;;13.81;100.00;100811.16;2619229;54;20153;-64
2022/04/17 01:17:18;;;;;;;0.83;0.83;;;;;;;13.94;100.00;100805.91;2618851;54;20150;-64
2022/04/17 01:19:50;;;;;;;3.50;3.17;;;;;;;13.57;100.00;100784.22;2618796;54;20133;-64
2022/04/17 01:22:25;;;;;;;4.37;3.97;;;;;;;13.81;100.00;100812.94;2618243;54;20161;-65
2022/04/17 01:27:38;;;;;;;1.80;1.70;;;;;;;13.85;100.00;100810.00;2618646;54;20145;-64
2022/04/17 01:30:10;;;;;;;0.00;0.00;;;;;;;14.12;100.00;100833.28;2618702;47;20160;-65
2022/04/17 01:32:40;;;;;;;0.53;0.53;;;;;;;14.26;100.00;100829.66;2618921;54;20152;-65
2022/04/17 01:35:11;;;;;;;1.13;0.30;;;;;;;14.31;100.00;100832.75;2618776;54;20138;-64
2022/04/17 01:37:44;;;;;;;0.50;0.50;;;;;;;14.33;100.00;100829.09;2618555;54;20150;-64
2022/04/17 01:40:15;;;;;;;1.75;1.40;;;;;;;14.40;100.00;100827.72;2618604;47;20193;-65
2022/04/17 01:42:46;;;;;;;3.03;2.60;;;;;;;14.40;100.00;100822.50;2618480;54;20679;-65
2022/04/17 01:45:16;;;;;;;3.75;3.45;;;;;;;14.21;100.00;100834.38;2617691;47;20148;-64
2022/04/17 01:47:49;;;;;;;2.72;2.35;;;;;;;14.09;100.00;100836.09;2619041;54;20174;-64
2022/04/17 01:50:19;;;;;;;1.42;1.30;;;;;;;14.27;100.00;100845.22;2619067;54;20137;-64
2022/04/17 01:52:52;;;;;;;1.92;1.38;;;;;;;14.33;100.00;100836.09;2618343;54;20137;-65
2022/04/17 01:55:23;;;;;;;0.00;0.00;;;;;;;14.30;100.00;100816.28;2617836;54;20154;-64
2022/04/17 01:57:53;;;;;;;4.40;1.00;;;;;;;14.41;100.00;100847.66;2618875;39;20562;-64
2022/04/17 02:00:23;;;;;;;0.52;0.52;;;;;;;14.52;100.00;100847.69;2619151;54;20149;-64
2022/04/17 02:02:53;;;;;;;4.95;2.55;;;;;;;14.48;100.00;100830.59;2618523;54;20134;-64
2022/04/17 02:05:24;;;;;;;2.63;2.42;;;;;;;14.49;100.00;100845.31;2619055;54;20153;-65
2022/04/17 02:07:56;;;;;;;1.58;1.48;;;;;;;14.41;100.00;100847.66;2619033;54;20142;-64
2022/04/17 02:10:27;;;;;;;0.47;0.47;;;;;;;14.46;100.00;100844.72;2619074;54;20201;-64
2022/04/17 02:12:59;;;;;;;1.85;1.67;;;;;;;14.27;100.00;100837.38;2619068;54;20150;-64
2022/04/17 02:15:29;;;;;;;2.53;1.73;;;;;;;14.33;100.00;100833.47;2619252;54;20153;-64
2022/04/17 02:18:00;;;;;;;0.52;0.52;;;;;;;14.42;100.00;100848.50;2618489;54;20177;-65
2022/04/17 02:20:30;;;;;;;0.08;0.08;;;;;;;14.47;100.00;100839.38;2618490;54;20142;-64
2022/04/17 02:23:03;;;;;;;0.00;0.00;;;;;;;14.50;100.00;100840.94;2618127;47;20720;-64
2022/04/17 02:25:33;;;;;;;4.43;4.05;;;;;;;14.16;100.00;100836.50;2619199;54;20138;-64
2022/04/17 02:28:03;;;;;;;5.93;4.47;;;;;;;14.11;100.00;100843.81;2619761;54;20126;-64
2022/04/17 02:30:33;;;;;;;3.85;3.55;;;;;;;13.92;100.00;100842.53;2618549;54;20225;-64
2022/04/17 02:33:04;;;;;;;0.87;0.87;;;;;;;13.99;100.00;100842.94;2618642;54;20138;-64
2022/04/17 02:35:34;;;;;;;1.30;0.75;;;;;;;13.99;100.00;100840.31;2618473;54;20196;-65
2022/04/17 02:38:07;;;;;;;8.60;3.90;;;;;;;13.76;100.00;100844.56;2619053;39;20544;-65
2022/04/17 02:40:38;;;;;;;7.10;4.13;;;;;;;13.75;100.00;100842.91;2618278;54;20270;-65
2022/04/17 02:43:08;;;;;;;0.43;0.43;;;;;;;13.85;100.00;100848.28;2618405;54;20134;-65
2022/04/17 02:45:38;;;;;;;1.77;1.67;;;;;;;13.91;100.00;100853.09;2618279;54;20142;-65
2022/04/17 02:48:10;;;;;;;0.15;0.15;;;;;;;14.15;100.00;100856.53;2618338;54;20642;-65
2022/04/17 02:50:40;;;;;;;0.77;0.77;;;;;;;14.21;100.00;100853.47;2618704;39;20572;-65
2022/04/17 02:53:13;;;;;;;0.82;0.82;;;;;;;14.16;100.00;100860.81;2618535;54;20141;-65
2022/04/17 02:55:43;;;;;;;1.15;1.15;;;;;;;14.14;100.00;100860.09;2618530;54;20138;-64
2022/04/17 02:58:14;;;;;;;2.72;1.17;;;;;;;14.29;100.00;100864.19;2618977;54;20145;-65
2022/04/17 03:06:10;;;;;;;3.92;2.67;;;;;;;13.68;100.00;100882.56;2618094;54;20258;-64
2022/04/17 03:08:44;;;;;;;4.93;3.20;;;;;;;13.70;100.00;100878.06;2618481;47;20145;-65
2022/04/17 03:11:15;;;;;;;11.82;7.03;;;;;;;13.57;100.00;100883.28;2618639;54;20193;-65
2022/04/17 03:13:48;;;;;;;7.97;5.28;;;;;;;13.52;100.00;100875.00;2618487;54;20164;-65
2022/04/17 03:16:18;;;;;;;5.50;3.33;;;;;;;13.56;100.00;100887.69;2619678;54;20134;-64
2022/04/17 03:18:49;;;;;;;2.92;2.65;;;;;;;13.48;100.00;100887.38;2619093;54;20146;-65
2022/04/17 03:21:19;;;;;;;4.10;2.17;;;;;;;13.49;100.00;100878.63;2618751;54;20137;-64
2022/04/17 03:23:52;;;;;;;6.87;5.80;;;;;;;13.28;100.00;100867.06;2620144;54;20154;-65
2022/04/17 03:26:22;;;;;;;3.63;3.28;;;;;;;13.39;100.00;100861.13;2619505;47;20142;-65
2022/04/17 03:28:55;;;;;;;6.27;5.10;;;;;;;13.50;100.00;100853.38;2619978;47;20146;-66
2022/04/17 03:31:26;;;;;;;13.05;5.47;;;;;;;13.38;100.00;100869.88;2618886;54;20142;-65
2022/04/17 03:33:57;;;;;;;7.83;5.30;;;;;;;13.35;100.00;100868.31;2618453;47;20157;-66
2022/04/17 03:36:28;;;;;;;8.57;5.77;;;;;;;13.23;100.00;100868.34;2620014;54;20192;-65
2022/04/17 03:39:01;;;;;;;8.90;7.00;;;;;;;13.18;100.00;100868.66;2620331;54;20770;-65
2022/04/17 03:41:32;;;;;;;10.17;7.90;;;;;;;13.12;100.00;100884.66;2620610;54;20144;-64
2022/04/17 03:44:03;;;;;;;10.53;6.13;;;;;;;13.20;100.00;100874.56;2620041;54;20149;-66
2022/04/17 03:46:34;;;;;;;9.23;5.40;;;;;;;13.25;100.00;100885.53;2619912;47;20236;-64
2022/04/17 03:49:04;;;;;;;8.00;4.18;;;;;;;13.26;100.00;100875.94;2619371;47;20241;-65
2022/04/17 03:51:35;;;;;;;4.93;3.57;;;;;;;13.50;100.00;100880.28;2618392;47;20245;-65
2022/04/17 03:54:08;;;;;;;3.53;3.22;;;;;;;13.48;100.00;100874.34;2618691;54;20141;-65
2022/04/17 03:56:39;;;;;;;8.50;6.33;;;;;;;13.35;100.00;100873.53;2618340;54;20134;-65
2022/04/17 03:59:09;;;;;;;8.90;5.70;;;;;;;13.24;100.00;100878.63;2619163;47;20144;-66
2022/04/17 04:01:40;;;;;;;8.65;5.70;;;;;;;13.26;100.00;100888.97;2619171;54;20133;-65
2022/04/17 04:04:11;;;;;;;7.23;6.00;;;;;;;13.11;100.00;100864.78;2619511;54;20193;-67
2022/04/17 04:06:41;;;;;;;9.77;5.05;;;;;;;13.19;100.00;100875.53;2619021;54;20138;-66
2022/04/17 04:09:14;;;;;;;9.97;5.87;;;;;;;13.09;100.00;100866.63;2619682;54;20145;-67
2022/04/17 04:11:45;;;;;;;4.05;2.85;;;;;;;13.14;100.00;100872.38;2619185;47;20251;-66
2022/04/17 04:14:16;;;;;;;7.88;5.82;;;;;;;13.12;100.00;100900.31;2620158;54;20138;-64
2022/04/17 04:16:46;;;;;;;6.43;5.53;;;;;;;13.12;100.00;100888.13;2620208;54;20180;-64
2022/04/17 04:19:16;;;;;;;11.57;4.97;;;;;;;13.03;100.00;100867.88;2619694;54;20136;-64
2022/04/17 04:21:52;;;;;;;6.87;4.77;;;;;;;13.14;100.00;100914.06;2619766;54;20142;-64
2022/04/17 04:24:26;;;;;;;13.15;7.55;;;;;;;13.00;100.00;100868.06;2619725;54;20133;-64
2022/04/17 04:29:39;;;;;;;8.25;5.85;;;;;;;13.10;100.00;100915.22;2620576;54;20134;-64
2022/04/17 04:32:11;;;;;;;6.30;4.30;;;;;;;13.09;100.00;100909.13;2618895;54;20183;-65
2022/04/17 04:34:41;;;;;;;1.77;1.67;;;;;;;13.35;100.00;100902.22;2619725;39;20526;-65
2022/04/17 04:37:11;;;;;;;0.40;0.10;;;;;;;13.76;100.00;100914.16;2618032;54;20145;-65
2022/04/17 04:39:44;;;;;;;0.90;0.90;;;;;;;13.98;100.00;100915.13;2618309;54;20141;-64
2022/04/17 04:42:14;;;;;;;1.93;1.37;;;;;;;14.15;100.00;100913.94;2618797;54;20164;-64
2022/04/17 04:44:47;;;;;;;0.00;0.00;;;;;;;14.00;100.00;100917.66;2618451;54;20165;-65
2022/04/17 04:47:17;;;;;;;3.30;3.00;;;;;;;14.02;100.00;100918.38;2617786;54;20148;-65
2022/04/17 04:49:47;;;;;;;2.75;1.67;;;;;;;14.03;100.00;100917.44;2619037;39;20551;-65
2022/04/17 04:52:17;;;;;;;1.83;0.93;;;;;;;14.24;100.00;100934.16;2618087;54;20144;-65
2022/04/17 04:54:50;;;;;;;0.00;0.00;;;;;;;14.47;100.00;100941.22;2618237;54;20154;-64
2022/04/17 04:57:20;;;;;;;3.30;2.65;;;;;;;14.28;100.00;100940.00;2618448;54;20137;-65
2022/04/17 04:59:51;;;;;;;6.50;5.80;;;;;;;13.85;100.00;100950.00;2618355;54;20134;-64
2022/04/17 05:02:21;;;;;;;1.83;1.63;;;;;;;13.77;100.00;100944.50;2618090;54;20133;-65
2022/04/17 05:04:51;;;;;;;8.52;3.15;;;;;;;13.66;100.00;100953.06;2617749;49;20130;-65
2022/04/17 05:07:21;;;;;;;3.58;1.77;;;;;;;13.65;100.00;100955.75;2618602;54;20134;-66
2022/04/17 05:09:54;;;;;;;3.13;2.03;;;;;;;13.29;100.00;100946.91;2619049;54;20194;-65
2022/04/17 05:12:24;;;;;;;1.33;1.25;;;;;;;13.15;100.00;100941.81;2618588;54;20173;-68
2022/04/17 05:14:55;;;;;;;4.03;3.13;;;;;;;13.13;100.00;100938.44;2619071;54;20141;-65
2022/04/17 05:17:25;;;;;;;0.00;0.00;;;;;;;13.29;100.00;100959.94;2619010;54;20150;-65
2022/04/17 05:19:55;;;;;;;3.93;0.87;;;;;;;13.26;100.00;100959.31;2619059;39;20553;-65
2022/04/17 05:22:31;;;;;;;1.67;0.85;;;;;;;13.10;100.00;100964.72;2620052;54;20140;-65
2022/04/17 05:25:04;;;;;;;2.00;1.27;;;;;;;13.16;100.00;100977.31;2620084;54;20149;-65
2022/04/17 05:27:35;;;;;;;1.90;1.30;;;;;;;13.21;100.00;100985.69;2618676;54;20667;-64
2022/04/17 05:30:05;;;;;;;2.28;0.77;;;;;;;13.34;100.00;100994.34;2618148;54;20163;-65
2022/04/17 05:32:35;;;;;;;0.40;0.40;;;;;;;13.47;100.00;100990.00;2617553;54;20146;-66
2022/04/17 05:35:06;;;;;;;3.03;1.33;;;;;;;13.38;100.00;100989.75;2618482;54;20142;-65
2022/04/17 05:37:36;;;;;;;2.28;1.45;;;;;;;13.46;100.00;100993.53;2618290;54;20149;-65
2022/04/17 05:40:11;;;;;;;1.33;0.63;;;;;;;13.35;100.00;100996.03;2617831;54;20140;-65
2022/04/17 05:42:42;;;;;;;1.07;1.07;;;;;;;13.33;100.00;100989.22;2617789;47;20164;-66
2022/04/17 05:45:13;;;;;;;1.25;1.25;;;;;;;13.36;100.00;101000.28;2618318;54;20142;-65
2022/04/17 05:47:44;;;;;;;9.85;0.75;;;;;;;13.70;100.00;101000.63;2618063;54;20142;-65
2022/04/17 05:50:14;;;;;;;0.40;0.40;;;;;;;14.19;100.00;101006.72;2617620;47;20153;-65
2022/04/17 05:52:44;;;;;;;0.65;0.35;;;;;;;13.45;100.00;101009.25;2616598;54;20145;-64
2022/04/17 05:55:18;;;;;;;0.20;0.20;;;;;;;13.34;100.00;101003.94;2617052;54;20681;-66
2022/04/17 05:57:48;;;;;;;0.20;0.20;;;;;;;13.12;100.00;101009.72;2617696;54;20142;-65
2022/04/17 06:00:19;;;;;;;6.13;1.60;;;;;;;13.33;100.00;101017.91;2618212;54;20141;-66
2022/04/17 06:02:49;;;;;;;2.05;0.55;;;;;;;12.96;100.00;101015.06;2617441;54;20149;-65
2022/04/17 06:05:20;;;;;;;0.85;0.68;;;;;;;13.01;100.00;101017.38;2617725;54;20148;-65
2022/04/17 06:07:50;;;;;;;2.17;1.17;;;;;;;12.79;100.00;101022.31;2617531;54;20138;-64
2022/04/17 06:10:23;;;;;;;0.35;0.35;;;;;;;12.92;100.00;101029.22;2617736;54;20165;-65
2022/04/17 06:12:53;;;;;;;0.00;0.00;;;;;;;13.02;100.00;101021.66;2617906;54;20134;-64
2022/04/17 06:15:24;;;;;;;0.77;0.77;;;;;;;12.93;100.00;101036.09;2618528;54;20145;-64
2022/04/17 06:17:54;;;;;;;1.37;1.20;;;;;;;12.65;100.00;101039.63;2618710;54;20149;-65
2022/04/17 06:20:24;;;;;;;1.63;1.23;;;;;;;12.46;100.00;101057.34;2619086;39;20551;-65
2022/04/17 06:22:54;;;;;;;5.13;2.03;;;;;;;12.42;100.00;101039.41;2618965;54;20148;-64
2022/04/17 06:25:27;;;;;;;3.70;2.25;;;;;;;12.35;100.00;101027.72;2618407;54;20146;-65
2022/04/17 06:27:59;;;;;;;1.00;0.93;;;;;;;12.29;100.00;101047.13;2618054;54;20133;-65
2022/04/17 06:30:30;;;;;;;2.03;1.90;;;;;;;12.00;100.00;101043.72;2618303;54;20156;-64
2022/04/17 06:33:00;;;;;;;3.13;2.17;;;;;;;11.82;100.00;101059.59;2618604;54;20145;-64
2022/04/17 06:35:30;;;;;;;3.80;2.97;;;;;;;11.76;100.00;101023.53;2619601;54;20160;-64
2022/04/17 06:38:03;;;;;;;8.70;6.43;;;;;;;11.17;100.00;101046.88;2619376;54;20140;-66
2022/04/17 06:40:37;;;;;;;2.30;1.50;;;;;;;11.31;100.00;101048.69;2618410;54;20134;-64
2022/04/17 06:43:08;;;;;;;4.90;3.63;;;;;;;11.05;100.00;101041.53;2619126;54;20142;-64
2022/04/17 06:45:40;;;;;;;2.60;1.97;;;;;;;11.18;100.00;101032.97;2619431;54;20148;-65
2022/04/17 06:48:15;;;;;;;1.03;0.63;;;;;;;10.67;100.00;101036.72;2620257;54;20149;-64
2022/04/17 06:50:46;;;;;;;4.23;3.23;;;;;;;10.90;100.00;101012.09;2619456;54;20148;-64
2022/04/17 06:53:16;;;;;;;2.33;1.80;;;;;;;11.24;100.00;101031.75;2622513;54;20163;-64
2022/04/17 06:55:49;;;;;;;4.13;1.97;;;;;;;10.86;100.00;101026.16;2620939;54;20150;-64
2022/04/17 06:58:20;;;;;;;5.23;2.80;;;;;;;10.59;100.00;101015.53;2619427;54;20134;-64
2022/04/17 07:00:51;;;;;;;1.53;1.27;;;;;;;11.07;100.00;101008.53;2619309;54;20141;-65
2022/04/17 07:03:21;;;;;;;1.97;0.80;;;;;;;11.22;100.00;101018.03;2619148;54;20148;-65
2022/04/17 07:05:52;;;;;;;1.53;0.97;;;;;;;11.14;100.00;101020.25;2618984;54;20153;-64
2022/04/17 07:08:22;;;;;;;5.90;3.57;;;;;;;11.10;100.00;101036.91;2619157;54;20142;-65
2022/04/17 07:10:55;;;;;;;3.57;2.37;;;;;;;11.34;100.00;101030.31;2619318;54;20284;-64
2022/04/17 07:13:26;;;;;;;1.47;1.37;;;;;;;11.64;100.00;101030.28;2618880;54;20142;-65
2022/04/17 07:15:56;;;;;;;0.50;0.50;;;;;;;11.87;100.00;101021.16;2618195;39;20630;-65
2022/04/17 07:18:26;;;;;;;2.93;1.50;;;;;;;11.87;100.00;101031.56;2619275;54;20622;-65
2022/04/17 07:20:57;;;;;;;4.33;1.47;;;;;;;11.33;100.00;101039.03;2619379;54;20152;-65
2022/04/17 07:23:27;;;;;;;3.23;2.40;;;;;;;11.29;100.00;101040.13;2619754;47;20148;-65
2022/04/17 07:26:00;;;;;;;2.07;1.80;;;;;;;11.83;100.00;101019.66;2619661;54;20172;-65
2022/04/17 07:28:30;;;;;;;5.93;2.63;;;;;;;11.93;100.00;101020.78;2621122;54;20224;-65
2022/04/17 07:31:00;;;;;;;1.03;1.00;;;;;;;11.92;100.00;101014.72;2621020;54;20134;-65
2022/04/17 07:33:30;;;;;;;1.33;1.23;;;;;;;11.98;100.00;101009.19;2619468;54;20705;-65
2022/04/17 07:36:02;;;;;;;4.70;2.30;;;;;;;12.17;100.00;101008.88;2619768;54;20152;-65
2022/04/17 07:38:32;;;;;;;2.10;2.00;;;;;;;12.17;100.00;101014.06;2620378;54;20134;-65
2022/04/17 07:41:06;;;;;;;2.60;1.40;;;;;;;12.18;100.00;101028.75;2619725;54;20141;-65
2022/04/17 07:43:36;;;;;;;0.70;0.57;;;;;;;11.76;100.00;101047.78;2619895;54;20141;-65
2022/04/17 07:46:07;;;;;;;0.27;0.27;;;;;;;12.00;100.00;101046.31;2619976;54;20142;-65
2022/04/17 07:48:37;;;;;;;2.40;0.60;;;;;;;12.16;100.00;101049.66;2619784;54;20141;-65
2022/04/17 07:51:07;;;;;;;0.50;0.27;;;;;;;12.21;100.00;101054.56;2619939;39;20531;-65
2022/04/17 07:53:37;;;;;;;0.20;0.20;;;;;;;12.35;100.00;101044.19;2619619;54;20134;-65
2022/04/17 07:56:10;;;;;;;0.20;0.13;;;;;;;12.30;100.00;101034.97;2619061;54;20134;-65
2022/04/17 07:58:41;;;;;;;0.30;0.20;;;;;;;12.42;100.00;101040.25;2619718;54;20133;-65
2022/04/17 08:01:15;;;;;;;0.63;0.63;;;;;;;12.56;100.00;101048.03;2619517;54;20137;-65
2022/04/17 08:03:49;;;;;;;1.70;1.00;;;;;;;12.52;100.00;101051.75;2618391;54;20141;-65
2022/04/17 08:06:23;;;;;;;0.20;0.20;;;;;;;12.45;100.00;101053.06;2619099;39;20247;-65
2022/04/17 08:08:54;;;;;;;0.87;0.50;;;;;;;12.68;100.00;101051.63;2618443;54;20658;-65
2022/04/17 08:11:31;;;;;;;0.52;0.30;;;;;;;12.35;100.00;101031.16;2618871;54;20242;-65
2022/04/17 08:14:02;;;;;;;0.63;0.53;;;;;;;12.42;100.00;101002.97;2619700;54;20657;-64
2022/04/17 08:16:32;;;;;;;0.47;0.47;;;;;;;12.41;100.00;100981.31;2619700;54;20661;-64
2022/04/17 08:19:02;;;;;;;1.27;0.40;;;;;;;12.75;100.00;100948.78;2619655;54;20129;-65
2022/04/17 08:21:33;;;;;;;0.80;0.73;;;;;;;12.44;100.00;100972.47;2619277;47;20145;-65
2022/04/17 08:24:03;;;;;;;0.97;0.97;;;;;;;12.23;100.00;100979.06;2618992;54;20134;-65
2022/04/17 08:26:36;;;;;;;1.40;1.30;;;;;;;12.06;100.00;100967.09;2618801;54;20653;-65
2022/04/17 08:29:06;;;;;;;1.47;1.37;;;;;;;12.05;100.00;100948.03;2623127;39;20693;-64
2022/04/17 08:31:36;;;;;;;0.67;0.60;;;;;;;11.85;100.00;100942.41;2618937;48;20165;-65
2022/04/17 08:34:06;;;;;;;1.47;1.37;;;;;;;11.68;100.00;100946.00;2620134;54;20148;-65
2022/04/17 08:36:37;;;;;;;1.07;0.87;;;;;;;11.64;100.00;100947.09;2620256;54;20141;-64
2022/04/17 08:39:07;;;;;;;1.20;0.70;;;;;;;11.51;100.00;100952.22;2619643;54;20164;-64
2022/04/17 08:41:41;;;;;;;1.37;0.90;;;;;;;11.68;100.00;100990.19;2619299;54;20144;-65
2022/04/17 08:44:11;;;;;;;0.93;0.93;;;;;;;11.49;100.00;100982.66;2619721;54;20690;-66
2022/04/17 08:46:42;;;;;;;0.40;0.40;;;;;;;11.44;100.00;100973.44;2620296;54;20192;-64
2022/04/17 08:49:13;;;;;;;1.63;0.90;;;;;;;11.16;100.00;100971.63;2619590;54;20141;-65
2022/04/17 08:51:48;;;;;;;1.30;0.80;;;;;;;11.58;100.00;100979.50;2619428;54;20673;-67
2022/04/17 08:54:18;;;;;;;5.20;1.53;;;;;;;11.71;100.00;100988.25;2619602;47;20191;-65
2022/04/17 08:56:51;;;;;;;1.17;0.97;;;;;;;11.66;100.00;100998.09;2619914;47;20157;-64
2022/04/17 08:59:21;;;;;;;1.50;0.93;;;;;;;11.50;100.00;100997.31;2620730;54;20499;-64
2022/04/17 09:01:52;;;;;;;0.23;0.23;;;;;;;11.83;100.00;100983.28;2620201;39;20478;-64
2022/04/17 09:04:23;;;;;;;2.33;2.10;;;;;;;11.57;100.00;100983.03;2619378;54;20142;-64
2022/04/17 09:06:53;;;;;;;1.07;1.07;;;;;;;11.94;100.00;101001.66;2618743;54;20141;-64
2022/04/17 09:09:24;;;;;;;1.17;0.77;;;;;;;11.88;100.00;100989.00;2619810;39;20543;-65
2022/04/17 09:11:57;;;;;;;0.80;0.80;;;;;;;11.25;100.00;100989.28;2619374;54;20288;-65
2022/04/17 09:14:27;;;;;;;2.43;1.53;;;;;;;11.15;100.00;100986.38;2619614;54;20157;-65
2022/04/17 09:16:57;;;;;;;1.43;0.73;;;;;;;11.15;100.00;101004.56;2618803;54;20141;-65
2022/04/17 09:19:28;;;;;;;1.60;1.50;;;;;;;11.28;100.00;100996.91;2619308;54;20137;-65
2022/04/17 09:22:01;;;;;;;2.33;1.00;;;;;;;11.30;100.00;100987.28;2619534;54;20141;-64
2022/04/17 09:24:31;;;;;;;1.23;0.87;;;;;;;11.43;100.00;100993.41;2618553;39;20554;-65
2022/04/17 09:27:04;;;;;;;0.57;0.57;;;;;;;11.61;100.00;100992.31;2618464;54;20148;-65
2022/04/17 09:29:36;;;;;;;2.53;1.23;;;;;;;10.71;100.00;100996.69;2618752;54;20148;-65
2022/04/17 09:32:07;;;;;;;1.50;1.30;;;;;;;10.50;100.00;101004.84;2618513;54;20156;-64
2022/04/17 09:34:49;;;;;;;0.80;0.43;;;;;;;10.95;100.00;101004.88;2618742;54;20134;-66
2022/04/17 09:37:21;;;;;;;0.63;0.60;;;;;;;10.85;100.00;100995.09;2620193;54;20153;-65
2022/04/17 09:39:53;;;;;;;1.07;0.97;;;;;;;10.21;100.00;101011.59;2623920;54;20194;-65
2022/04/17 09:42:27;;;;;;;1.20;0.90;;;;;;;10.82;100.00;101013.44;2620529;54;20679;-65
2022/04/17 09:44:57;;;;;;;1.73;0.70;;;;;;;10.55;100.00;101016.63;2618965;54;20140;-65
2022/04/17 09:47:29;;;;;;;0.60;0.60;;;;;;;10.08;100.00;101003.59;2619638;54;20657;-65
2022/04/17 09:50:04;;;;;;;0.73;0.60;;;;;;;10.38;100.00;101024.50;2618614;54;20714;-65
2022/04/17 09:52:35;;;;;;;0.93;0.90;;;;;;;10.68;100.00;101015.03;2619101;54;20134;-65
2022/04/17 09:55:07;;;;;;;0.27;0.27;;;;;;;10.46;100.00;101003.34;2619570;54;20140;-65
2022/04/17 09:57:41;;;;;;;1.13;1.07;;;;;;;10.94;100.00;101020.53;2619372;54;20141;-65
2022/04/17 10:00:14;;;;;;;1.17;0.80;;;;;;;11.10;100.00;101031.72;2618654;47;20153;-64
2022/04/17 10:02:46;;;;;;;1.93;0.37;;;;;;;10.75;100.00;101007.75;2619627;54;20142;-65
2022/04/17 10:05:18;;;;;;;0.40;0.40;;;;;;;11.00;100.00;100999.41;2621641;54;20142;-64
2022/04/17 10:07:49;;;;;;;0.50;0.50;;;;;;;11.21;100.00;101000.78;2619479;54;20229;-65
2022/04/17 10:10:20;;;;;;;1.50;0.57;;;;;;;11.51;100.00;100993.81;2619206;54;20181;-64
2022/04/17 10:12:54;;;;;;;0.00;0.00;;;;;;;11.52;100.00;100994.63;2618455;47;20134;-65
2022/04/17 10:15:25;;;;;;;0.50;0.50;;;;;;;11.03;100.00;100981.88;2617610;54;20149;-65
2022/04/17 10:17:58;;;;;;;0.83;0.10;;;;;;;11.99;100.00;100973.59;2617634;54;20433;-65
2022/04/17 10:20:28;;;;;;;0.20;0.20;;;;;;;11.73;100.00;100975.19;2618993;39;20231;-65
2022/04/17 10:23:04;;;;;;;0.20;0.20;;;;;;;11.99;100.00;100984.00;2619195;54;20134;-65
2022/04/17 10:25:37;;;;;;;0.00;0.00;;;;;;;12.73;100.00;100975.81;2618706;54;20144;-65
2022/04/17 10:28:12;;;;;;;0.30;0.30;;;;;;;13.01;100.00;100983.50;2618666;54;20149;-66
2022/04/17 10:30:59;;;;;;;0.47;0.40;;;;;;;12.51;100.00;100966.81;2618035;47;20130;-65
2022/04/17 10:33:56;;;;;;;0.67;0.30;;;;;;;12.08;100.00;100978.22;2619668;39;20562;-65
2022/04/17 10:36:49;;;;;;;1.33;0.90;;;;;;;12.17;100.00;100988.06;2618189;54;20142;-65
2022/04/17 10:39:24;;;;;;;0.00;0.00;;;;;;;12.15;100.00;100995.97;2617568;54;20144;-65
2022/04/17 10:41:55;;;;;;;0.00;0.00;;;;;;;12.75;100.00;100994.81;2617326;54;20598;-66
2022/04/17 10:44:31;;;;;;;0.00;0.00;;;;;;;12.78;100.00;100997.19;2617199;54;20142;-64
2022/04/17 10:47:06;;;;;;;1.23;0.60;;;;;;;12.33;100.00;100986.19;2617337;54;20144;-65
2022/04/17 10:49:56;;;;;;;0.43;0.40;;;;;;;12.68;100.00;100984.78;2617870;54;20142;-65
2022/04/17 10:52:31;;;;;;;1.37;0.40;;;;;;;12.40;100.00;100986.63;2618108;47;20169;-64
2022/04/17 10:55:11;;;;;;;0.60;0.40;;;;;;;12.29;100.00;100981.25;2617960;54;20134;-65
2022/04/17 10:57:48;;;;;;;1.27;0.70;;;;;;;11.73;100.00;100989.00;2619411;54;20229;-64
2022/04/17 11:00:36;;;;;;;0.23;0.23;;;;;;;11.98;100.00;100990.13;2618829;54;20134;-65
2022/04/17 11:03:26;;;;;;;0.73;0.63;;;;;;;11.80;100.00;100981.66;2619586;39;20539;-65
2022/04/17 11:08:57;;;;;;;0.80;0.80;;;;;;;11.22;100.00;100966.09;2618225;54;20148;-66
2022/04/17 11:11:37;;;;;;;0.63;0.60;;;;;;;10.98;100.00;100983.09;2619184;54;20195;-66
2022/04/17 11:14:11;;;;;;;0.10;0.10;;;;;;;11.10;100.00;100977.19;2618922;54;20141;-65
2022/04/17 11:16:59;;;;;;;2.17;1.63;;;;;;;10.88;100.00;100955.97;2619883;39;20538;-66
2022/04/17 11:19:33;;;;;;;2.47;1.20;;;;;;;10.64;100.00;100979.78;2619839;47;20160;-66
2022/04/17 11:22:04;;;;;;;0.30;0.30;;;;;;;10.38;100.00;100974.38;2619190;46;20141;-65
2022/04/17 11:25:06;;;;;;;0.80;0.80;;;;;;;10.70;100.00;100983.81;2619627;54;20142;-66
2022/04/17 11:27:41;;;;;;;0.53;0.40;;;;;;;10.90;100.00;100975.75;2619226;47;20145;-66
2022/04/17 11:30:37;;;;;;;0.40;0.33;;;;;;;10.91;100.00;100977.44;2619121;54;20149;-65
2022/04/17 11:33:10;;;;;;;1.20;1.10;;;;;;;10.45;100.00;100962.75;2620346;54;20723;-65
2022/04/17 11:35:43;;;;;;;0.63;0.63;;;;;;;10.41;100.00;100977.66;2621673;54;20157;-66
2022/04/17 11:38:13;;;;;;;1.07;0.90;;;;;;;10.03;100.00;100977.09;2621525;54;20138;-65
2022/04/17 11:40:44;;;;;;;1.50;1.40;;;;;;;9.92;100.00;100981.16;2623433;47;20149;-65
2022/04/17 11:43:17;;;;;;;1.87;1.50;;;;;;;9.72;100.00;100990.81;2619850;54;20134;-65
2022/04/17 11:45:49;;;;;;;1.33;1.23;;;;;;;9.86;100.00;100983.19;2620799;54;20146;-65
2022/04/17 11:48:22;;;;;;;0.73;0.73;;;;;;;10.71;100.00;100986.31;2622466;54;20688;-65
2022/04/17 11:50:57;;;;;;;0.73;0.73;;;;;;;9.90;100.00;100967.47;2624474;46;20153;-65
2022/04/17 11:53:28;;;;;;;1.80;1.47;;;;;;;9.78;100.00;100987.94;2622147;54;20148;-64
2022/04/17 11:55:58;;;;;;;0.97;0.97;;;;;;;10.22;100.00;100976.97;2620645;54;20149;-65
2022/04/17 11:58:30;;;;;;;0.77;0.77;;;;;;;10.23;100.00;100961.31;2620245;54;20157;-64
2022/04/17 12:01:01;;;;;;;2.00;1.53;;;;;;;10.11;100.00;100961.16;2619905;54;20697;-66
2022/04/17 12:03:47;;;;;;;1.27;1.17;;;;;;;10.12;100.00;100960.19;2619356;54;20148;-67
2022/04/17 12:06:17;;;;;;;2.93;1.53;;;;;;;10.12;100.00;100975.75;2618941;54;20575;-64
2022/04/17 12:08:50;;;;;;;0.77;0.13;;;;;;;10.17;100.00;100968.59;2619806;54;20134;-65
2022/04/17 12:11:21;;;;;;;0.90;0.90;;;;;;;10.49;100.00;100965.09;2619955;47;20189;-65
2022/04/17 12:13:57;;;;;;;1.67;1.57;;;;;;;9.94;100.00;100966.38;2618819;47;20148;-65
2022/04/17 12:16:27;;;;;;;4.83;1.70;;;;;;;9.56;100.00;100945.91;2619161;47;20724;-65
2022/04/17 12:19:00;;;;;;;0.73;0.73;;;;;;;9.88;100.00;100962.34;2619356;54;20142;-65
2022/04/17 12:21:31;;;;;;;2.90;1.40;;;;;;;9.95;100.00;100958.50;2620530;31;20559;-67
2022/04/17 12:24:02;;;;;;;4.60;1.23;;;;;;;9.81;100.00;100940.28;2619778;54;20681;-65
2022/04/17 12:26:32;;;;;;;0.27;0.23;;;;;;;9.70;100.00;100935.66;2619520;54;20237;-66
2022/04/17 12:29:02;;;;;;;2.63;2.13;;;;;;;9.77;100.00;100939.59;2619174;54;20176;-65
2022/04/17 12:31:33;;;;;;;0.80;0.77;;;;;;;9.78;100.00;100940.44;2619444;54;20245;-66
2022/04/17 12:34:19;;;;;;;2.03;1.47;;;;;;;9.55;100.00;100939.03;2618544;54;20214;-66
2022/04/17 12:36:49;;;;;;;1.97;1.37;;;;;;;9.30;100.00;100913.59;2619438;47;20890;-66
2022/04/17 12:39:33;;;;;;;0.40;0.40;;;;;;;9.91;100.00;100931.06;2620604;31;20623;-66
2022/04/17 12:42:18;;;;;;;0.97;0.70;;;;;;;9.59;100.00;100934.56;2617830;47;20157;-66
2022/04/17 12:44:49;;;;;;;1.60;1.30;;;;;;;9.78;100.00;100937.84;2617987;54;20245;-65
2022/04/17 12:47:20;;;;;;;1.33;1.17;;;;;;;9.59;100.00;100932.78;2619083;54;20142;-68
2022/04/17 12:49:58;;;;;;;0.73;0.73;;;;;;;9.84;100.00;100930.59;2618563;47;20157;-68
2022/04/17 12:52:28;;;;;;;1.20;1.10;;;;;;;9.86;100.00;100909.78;2618218;54;20156;-66
2022/04/17 12:54:59;;;;;;;1.50;1.50;;;;;;;9.86;100.00;100905.44;2618992;54;20148;-65
2022/04/17 12:57:30;;;;;;;0.60;0.60;;;;;;;9.99;100.00;100907.38;2618476;54;20141;-66
2022/04/17 13:00:00;;;;;;;1.50;1.40;;;;;;;9.61;100.00;100892.09;2619233;54;20213;-65
2022/04/17 13:02:31;;;;;;;2.07;0.93;;;;;;;9.80;100.00;100897.97;2619074;54;20142;-67
2022/04/17 13:05:04;;;;;;;2.10;1.90;;;;;;;8.81;100.00;100909.22;2618524;54;20149;-67